Hovedside
METAR-TAF:

METAR-TAF

Lufthavner :

Seattle, Washington, USA

breddegrad: 47-32-45N, lengdegrad: 122-18-49W, høyde over havet: 5 m

Gjeldene værobservasjon

Denne rapporten ble laget for 1 time og 9 minutter siden, klokken 07:53 UTC
Flau vind
Temperatur 5°C
Luftfuktighet 75%
Trykk 1024 hPa
Sikt: 16.1 km
Skyfri himmel

METAR: KBFI 180753Z 00000KT 10SM CLR 05/01 A3024 RMK AO2 SLP238 T00500011 401280044

Tid: 01:02 (09:02 UTC)

Varsel

Denne rapporten ble laget for 3 timer og 20 minutter siden, klokken 05:42 UTC
Varsel gyldig fra 18. klokken 06 UTC til 19. klokken 06 UTC
Vind 3 kt fra skiftende retning
Sikt: 10 km
Skyfri himmel
Fra 18. klokken 1200 UTC
Vind kt fra Nord
Sikt: 10 km
Skyfri himmel
tåke i nærheten
Fra 18. klokken 1800 UTC
Vind 3 kt fra skiftende retning
Sikt: 10 km
Skyfri himmel

TAF: KBFI 180542Z 1806/1906 VRB03KT P6SM SKC FM181200 00000KT P6SM VCFG SKC FM181800 VRB03KT P6SM SKC

Værobservasjoner og værvarsel for over 4000 flyplasser (METAR- og TAF-rapporter).

Tilgjengelige stasjoner er representert av de røde og gule prikkene på kartet.

Hold musepekeren over prikken for å se navnet på stasjonen.

Klikk så for å se værobservasjoner og -varsler.

For å forandre kartet kan du klikke på den grønne knappen med svart kryss for å zoome inn, på den grønne knappen med strek for å zoome ut, eller på de grønne pilene for å se tilstøtende kart.


METAR-TAF: